Terminal Aerodrome Forecast
Issued by NWS Grand Forks, ND

Home | Current Version | Previous Version | Text Only | Print | Product List | Glossary On
Versions: 1 2 3 4 5 6 7 8 9 10 11 12 13 14 15
000
FTUS43 KFGF 211700
TAFFAR
TAF
KFAR 211716Z 2118/2218 15024G34KT P6SM SKC
     FM220000 16018G26KT P6SM BKN120
     FM221500 16022G30KT P6SM OVC040=

USA.gov is the U.S. government's official web portal to all federal, state and local government web resources and services.